Station Historical Data
Daily Summary for March 10, 2012 Units:  Both    English   Metric
« Previous Day
Next Day »
Daily Weekly Monthly Yearly Custom
  High: Low: Average:
Temperature: 64.9 °F /  18.3 °C 35.9 °F /  2.2 °C 50.2 °F /  10.1 °C
Dew Point: 38.8 °F /  3.8 °C 24.0 °F /  -4.4 °C 30 °F /  -1.1 °C
Humidity: 65% 29% 47%
Wind Speed: 10.0mph /  16.1km/h - 3.4mph /  5.5km/h
Wind Gust: 11.0mph /  17.7km/h - -
Wind- - East
Pressure: 30.44 in /  1030.7 hPa 30.28 in /  1025.3 hPa -
Precipitation: 0.00 in /  0 mm    
Historical Graphs
 
 
Tabular Data for March 10, 2012
Time Temperature Dew Point Pressure Wind Wind Speed Wind Gust Humidity Rainfall Rate (Hourly) Conditions
00:00 43.6 °F /  6.4 °C 25.7 °F /  -3.5 °C 30.41in /  1029.7hPa NNE 3.0mph /  4.8km/h 6.0mph /  9.7km/h 49% 0.00in /  0mm
00:01 43.6 °F /  6.4 °C 25.7 °F /  -3.5 °C 30.41in /  1029.7hPa North 3.0mph /  4.8km/h 6.0mph /  9.7km/h 49% 0.00in /  0mm
00:06 43.4 °F /  6.3 °C 25.5 °F /  -3.6 °C 30.41in /  1029.7hPa NNE 3.0mph /  4.8km/h 5.0mph /  8km/h 49% 0.00in /  0mm
00:11 43.3 °F /  6.3 °C 25.4 °F /  -3.7 °C 30.41in /  1029.7hPa North 2.0mph /  3.2km/h 5.0mph /  8km/h 49% 0.00in /  0mm
00:16 43.1 °F /  6.2 °C 25.7 °F /  -3.5 °C 30.42in /  1030hPa NE 3.0mph /  4.8km/h 6.0mph /  9.7km/h 50% 0.00in /  0mm
00:21 42.8 °F /  6 °C 25.5 °F /  -3.6 °C 30.42in /  1030hPa NNE 3.0mph /  4.8km/h 5.0mph /  8km/h 50% 0.00in /  0mm
00:26 42.6 °F /  5.9 °C 25.8 °F /  -3.4 °C 30.41in /  1029.7hPa NE 3.0mph /  4.8km/h 5.0mph /  8km/h 51% 0.00in /  0mm
00:31 42.4 °F /  5.8 °C 25.6 °F /  -3.6 °C 30.41in /  1029.7hPa NNE 5.0mph /  8km/h 7.0mph /  11.3km/h 51% 0.00in /  0mm
00:36 42.4 °F /  5.8 °C 25.1 °F /  -3.8 °C 30.41in /  1029.7hPa NNE 3.0mph /  4.8km/h 4.0mph /  6.4km/h 50% 0.00in /  0mm
00:41 42.4 °F /  5.8 °C 25.1 °F /  -3.8 °C 30.41in /  1029.7hPa NNE 4.0mph /  6.4km/h 5.0mph /  8km/h 50% 0.00in /  0mm
00:46 42.4 °F /  5.8 °C 25.6 °F /  -3.6 °C 30.41in /  1029.7hPa NNE 4.0mph /  6.4km/h 6.0mph /  9.7km/h 51% 0.00in /  0mm
00:51 42.3 °F /  5.7 °C 25.0 °F /  -3.9 °C 30.41in /  1029.7hPa NNE 3.0mph /  4.8km/h 6.0mph /  9.7km/h 50% 0.00in /  0mm
00:56 42.0 °F /  5.6 °C 25.2 °F /  -3.8 °C 30.41in /  1029.7hPa NNE 4.0mph /  6.4km/h 4.0mph /  6.4km/h 51% 0.00in /  0mm
01:01 41.8 °F /  5.4 °C 25.0 °F /  -3.9 °C 30.41in /  1029.7hPa NNE 3.0mph /  4.8km/h 5.0mph /  8km/h 51% 0.00in /  0mm
01:06 41.6 °F /  5.3 °C 24.8 °F /  -4 °C 30.41in /  1029.7hPa NNE 5.0mph /  8km/h 5.0mph /  8km/h 51% 0.00in /  0mm
01:11 41.4 °F /  5.2 °C 25.1 °F /  -3.8 °C 30.41in /  1029.7hPa NNE 5.0mph /  8km/h 6.0mph /  9.7km/h 52% 0.00in /  0mm
01:16 41.1 °F /  5.1 °C 25.3 °F /  -3.7 °C 30.41in /  1029.7hPa NNE 2.0mph /  3.2km/h 4.0mph /  6.4km/h 53% 0.00in /  0mm
01:21 41.1 °F /  5.1 °C 24.8 °F /  -4 °C 30.41in /  1029.7hPa NNE 4.0mph /  6.4km/h 5.0mph /  8km/h 52% 0.00in /  0mm
01:26 40.9 °F /  4.9 °C 25.1 °F /  -3.8 °C 30.41in /  1029.7hPa NNE 5.0mph /  8km/h 5.0mph /  8km/h 53% 0.00in /  0mm
01:31 40.8 °F /  4.9 °C 25.0 °F /  -3.9 °C 30.41in /  1029.7hPa North 4.0mph /  6.4km/h 6.0mph /  9.7km/h 53% 0.00in /  0mm
01:36 40.5 °F /  4.7 °C 25.2 °F /  -3.8 °C 30.41in /  1029.7hPa North 4.0mph /  6.4km/h 4.0mph /  6.4km/h 54% 0.00in /  0mm
01:41 40.3 °F /  4.6 °C 25.0 °F /  -3.9 °C 30.41in /  1029.7hPa North 4.0mph /  6.4km/h 5.0mph /  8km/h 54% 0.00in /  0mm
01:46 40.1 °F /  4.5 °C 24.8 °F /  -4 °C 30.41in /  1029.7hPa NNW 3.0mph /  4.8km/h 6.0mph /  9.7km/h 54% 0.00in /  0mm
01:51 40.0 °F /  4.4 °C 25.1 °F /  -3.8 °C 30.40in /  1029.3hPa North 5.0mph /  8km/h 6.0mph /  9.7km/h 55% 0.00in /  0mm
01:56 39.9 °F /  4.4 °C 24.6 °F /  -4.1 °C 30.40in /  1029.3hPa NNE 3.0mph /  4.8km/h 5.0mph /  8km/h 54% 0.00in /  0mm
02:02 40.0 °F /  4.4 °C 24.3 °F /  -4.3 °C 30.41in /  1029.7hPa North 2.0mph /  3.2km/h 4.0mph /  6.4km/h 53% 0.00in /  0mm
02:07 40.2 °F /  4.6 °C 24.5 °F /  -4.2 °C 30.41in /  1029.7hPa NNE 4.0mph /  6.4km/h 8.0mph /  12.9km/h 53% 0.00in /  0mm
02:12 40.3 °F /  4.6 °C 24.5 °F /  -4.2 °C 30.40in /  1029.3hPa NNE 2.0mph /  3.2km/h 5.0mph /  8km/h 53% 0.00in /  0mm
02:17 40.1 °F /  4.5 °C 24.4 °F /  -4.2 °C 30.40in /  1029.3hPa North 5.0mph /  8km/h 5.0mph /  8km/h 53% 0.00in /  0mm
02:22 40.2 °F /  4.6 °C 24.5 °F /  -4.2 °C 30.40in /  1029.3hPa North 3.0mph /  4.8km/h 5.0mph /  8km/h 53% 0.00in /  0mm
02:27 39.8 °F /  4.3 °C 24.5 °F /  -4.2 °C 30.40in /  1029.3hPa NNE 2.0mph /  3.2km/h 4.0mph /  6.4km/h 54% 0.00in /  0mm
02:32 39.7 °F /  4.3 °C 24.4 °F /  -4.2 °C 30.40in /  1029.3hPa North 3.0mph /  4.8km/h 6.0mph /  9.7km/h 54% 0.00in /  0mm
02:37 39.6 °F /  4.2 °C 24.3 °F /  -4.3 °C 30.40in /  1029.3hPa NNE 2.0mph /  3.2km/h 4.0mph /  6.4km/h 54% 0.00in /  0mm
02:42 39.4 °F /  4.1 °C 24.1 °F /  -4.4 °C 30.40in /  1029.3hPa NNW 4.0mph /  6.4km/h 4.0mph /  6.4km/h 54% 0.00in /  0mm
02:47 39.4 °F /  4.1 °C 24.1 °F /  -4.4 °C 30.40in /  1029.3hPa North 3.0mph /  4.8km/h 3.0mph /  4.8km/h 54% 0.00in /  0mm
02:52 39.2 °F /  4 °C 24.0 °F /  -4.4 °C 30.40in /  1029.3hPa NNE 2.0mph /  3.2km/h 4.0mph /  6.4km/h 54% 0.00in /  0mm
02:57 39.1 °F /  3.9 °C 24.3 °F /  -4.3 °C 30.40in /  1029.3hPa NNE 3.0mph /  4.8km/h 5.0mph /  8km/h 55% 0.00in /  0mm
03:02 39.0 °F /  3.9 °C 24.6 °F /  -4.1 °C 30.39in /  1029hPa North 3.0mph /  4.8km/h 5.0mph /  8km/h 56% 0.00in /  0mm
03:07 38.7 °F /  3.7 °C 24.4 °F /  -4.2 °C 30.39in /  1029hPa North 4.0mph /  6.4km/h 5.0mph /  8km/h 56% 0.00in /  0mm
03:12 38.5 °F /  3.6 °C 24.6 °F /  -4.1 °C 30.39in /  1029hPa NNW 3.0mph /  4.8km/h 4.0mph /  6.4km/h 57% 0.00in /  0mm
03:17 38.3 °F /  3.5 °C 24.4 °F /  -4.2 °C 30.39in /  1029hPa North 3.0mph /  4.8km/h 6.0mph /  9.7km/h 57% 0.00in /  0mm
03:22 38.0 °F /  3.3 °C 24.5 °F /  -4.2 °C 30.39in /  1029hPa NNW 2.0mph /  3.2km/h 4.0mph /  6.4km/h 58% 0.00in /  0mm
03:27 37.8 °F /  3.2 °C 24.8 °F /  -4 °C 30.39in /  1029hPa North 2.0mph /  3.2km/h 4.0mph /  6.4km/h 59% 0.00in /  0mm
03:32 37.6 °F /  3.1 °C 24.6 °F /  -4.1 °C 30.39in /  1029hPa North 3.0mph /  4.8km/h 4.0mph /  6.4km/h 59% 0.00in /  0mm
03:37 37.7 °F /  3.2 °C 24.7 °F /  -4.1 °C 30.39in /  1029hPa North 2.0mph /  3.2km/h 5.0mph /  8km/h 59% 0.00in /  0mm
03:42 37.9 °F /  3.3 °C 24.5 °F /  -4.2 °C 30.39in /  1029hPa NNE 3.0mph /  4.8km/h 5.0mph /  8km/h 58% 0.00in /  0mm
03:47 37.8 °F /  3.2 °C 24.4 °F /  -4.2 °C 30.39in /  1029hPa NNE 3.0mph /  4.8km/h 6.0mph /  9.7km/h 58% 0.00in /  0mm
03:52 37.7 °F /  3.2 °C 24.7 °F /  -4.1 °C 30.39in /  1029hPa North 3.0mph /  4.8km/h 5.0mph /  8km/h 59% 0.00in /  0mm
03:57 37.7 °F /  3.2 °C 24.7 °F /  -4.1 °C 30.38in /  1028.7hPa NNE 6.0mph /  9.7km/h 6.0mph /  9.7km/h 59% 0.00in /  0mm
04:02 37.7 °F /  3.2 °C 24.7 °F /  -4.1 °C 30.38in /  1028.7hPa NNE 6.0mph /  9.7km/h 8.0mph /  12.9km/h 59% 0.00in /  0mm
04:07 37.7 °F /  3.2 °C 24.7 °F /  -4.1 °C 30.38in /  1028.7hPa NNE 4.0mph /  6.4km/h 6.0mph /  9.7km/h 59% 0.00in /  0mm
04:12 37.6 °F /  3.1 °C 24.6 °F /  -4.1 °C 30.38in /  1028.7hPa North 6.0mph /  9.7km/h 7.0mph /  11.3km/h 59% 0.00in /  0mm
04:17 37.6 °F /  3.1 °C 24.6 °F /  -4.1 °C 30.38in /  1028.7hPa North 4.0mph /  6.4km/h 7.0mph /  11.3km/h 59% 0.00in /  0mm
04:22 37.6 °F /  3.1 °C 24.6 °F /  -4.1 °C 30.38in /  1028.7hPa NNE 5.0mph /  8km/h 8.0mph /  12.9km/h 59% 0.00in /  0mm
04:27 37.7 °F /  3.2 °C 24.7 °F /  -4.1 °C 30.38in /  1028.7hPa NNE 5.0mph /  8km/h 8.0mph /  12.9km/h 59% 0.00in /  0mm
04:32 37.6 °F /  3.1 °C 24.6 °F /  -4.1 °C 30.38in /  1028.7hPa NNE 5.0mph /  8km/h 7.0mph /  11.3km/h 59% 0.00in /  0mm
04:37 37.5 °F /  3.1 °C 24.9 °F /  -3.9 °C 30.38in /  1028.7hPa North 5.0mph /  8km/h 6.0mph /  9.7km/h 60% 0.00in /  0mm
04:43 37.3 °F /  2.9 °C 24.7 °F /  -4.1 °C 30.38in /  1028.7hPa NNE 3.0mph /  4.8km/h 5.0mph /  8km/h 60% 0.00in /  0mm
04:48 37.3 °F /  2.9 °C 24.7 °F /  -4.1 °C 30.38in /  1028.7hPa North 5.0mph /  8km/h 6.0mph /  9.7km/h 60% 0.00in /  0mm
04:53 37.2 °F /  2.9 °C 24.6 °F /  -4.1 °C 30.38in /  1028.7hPa North 4.0mph /  6.4km/h 5.0mph /  8km/h 60% 0.00in /  0mm
04:58 36.9 °F /  2.7 °C 24.7 °F /  -4.1 °C 30.38in /  1028.7hPa NNE 2.0mph /  3.2km/h 3.0mph /  4.8km/h 61% 0.00in /  0mm
05:03 36.8 °F /  2.7 °C 24.6 °F /  -4.1 °C 30.38in /  1028.7hPa North 4.0mph /  6.4km/h 5.0mph /  8km/h 61% 0.00in /  0mm
05:08 36.9 °F /  2.7 °C 24.7 °F /  -4.1 °C 30.39in /  1029hPa NNE 4.0mph /  6.4km/h 7.0mph /  11.3km/h 61% 0.00in /  0mm
05:13 36.9 °F /  2.7 °C 24.7 °F /  -4.1 °C 30.39in /  1029hPa NE 4.0mph /  6.4km/h 7.0mph /  11.3km/h 61% 0.00in /  0mm
05:18 36.6 °F /  2.6 °C 24.4 °F /  -4.2 °C 30.39in /  1029hPa NNE 4.0mph /  6.4km/h 5.0mph /  8km/h 61% 0.00in /  0mm
05:23 36.4 °F /  2.4 °C 24.2 °F /  -4.3 °C 30.39in /  1029hPa NNE 4.0mph /  6.4km/h 8.0mph /  12.9km/h 61% 0.00in /  0mm
05:28 36.5 °F /  2.5 °C 24.7 °F /  -4.1 °C 30.38in /  1028.7hPa NNE 3.0mph /  4.8km/h 7.0mph /  11.3km/h 62% 0.00in /  0mm
05:33 36.5 °F /  2.5 °C 24.7 °F /  -4.1 °C 30.39in /  1029hPa NNE 4.0mph /  6.4km/h 6.0mph /  9.7km/h 62% 0.00in /  0mm
05:38 36.4 °F /  2.4 °C 24.6 °F /  -4.1 °C 30.38in /  1028.7hPa NNE 5.0mph /  8km/h 7.0mph /  11.3km/h 62% 0.00in /  0mm
05:43 36.3 °F /  2.4 °C 24.9 °F /  -3.9 °C 30.38in /  1028.7hPa NE 5.0mph /  8km/h 9.0mph /  14.5km/h 63% 0.00in /  0mm
05:48 36.3 °F /  2.4 °C 24.9 °F /  -3.9 °C 30.38in /  1028.7hPa NNE 5.0mph /  8km/h 8.0mph /  12.9km/h 63% 0.00in /  0mm
05:53 36.3 °F /  2.4 °C 24.9 °F /  -3.9 °C 30.38in /  1028.7hPa NE 4.0mph /  6.4km/h 6.0mph /  9.7km/h 63% 0.00in /  0mm
05:58 36.3 °F /  2.4 °C 24.9 °F /  -3.9 °C 30.39in /  1029hPa NNE 5.0mph /  8km/h 6.0mph /  9.7km/h 63% 0.00in /  0mm
06:03 36.4 °F /  2.4 °C 25.0 °F /  -3.9 °C 30.39in /  1029hPa NE 6.0mph /  9.7km/h 7.0mph /  11.3km/h 63% 0.00in /  0mm
06:08 36.2 °F /  2.3 °C 24.8 °F /  -4 °C 30.40in /  1029.3hPa ENE 4.0mph /  6.4km/h 5.0mph /  8km/h 63% 0.00in /  0mm
06:13 36.3 °F /  2.4 °C 24.9 °F /  -3.9 °C 30.40in /  1029.3hPa ENE 7.0mph /  11.3km/h 7.0mph /  11.3km/h 63% 0.00in /  0mm
06:18 36.3 °F /  2.4 °C 24.9 °F /  -3.9 °C 30.40in /  1029.3hPa NE 5.0mph /  8km/h 6.0mph /  9.7km/h 63% 0.00in /  0mm
06:23 36.3 °F /  2.4 °C 24.9 °F /  -3.9 °C 30.40in /  1029.3hPa NE 4.0mph /  6.4km/h 8.0mph /  12.9km/h 63% 0.00in /  0mm
06:28 36.3 °F /  2.4 °C 25.3 °F /  -3.7 °C 30.40in /  1029.3hPa NNE 5.0mph /  8km/h 7.0mph /  11.3km/h 64% 0.00in /  0mm
06:33 36.3 °F /  2.4 °C 25.3 °F /  -3.7 °C 30.40in /  1029.3hPa NE 5.0mph /  8km/h 7.0mph /  11.3km/h 64% 0.00in /  0mm
06:38 36.3 °F /  2.4 °C 25.3 °F /  -3.7 °C 30.40in /  1029.3hPa NNE 3.0mph /  4.8km/h 5.0mph /  8km/h 64% 0.00in /  0mm
06:43 36.3 °F /  2.4 °C 25.3 °F /  -3.7 °C 30.41in /  1029.7hPa NE 3.0mph /  4.8km/h 6.0mph /  9.7km/h 64% 0.00in /  0mm
06:48 36.2 °F /  2.3 °C 25.2 °F /  -3.8 °C 30.41in /  1029.7hPa NE 6.0mph /  9.7km/h 6.0mph /  9.7km/h 64% 0.00in /  0mm
06:53 36.3 °F /  2.4 °C 25.3 °F /  -3.7 °C 30.41in /  1029.7hPa NE 3.0mph /  4.8km/h 5.0mph /  8km/h 64% 0.00in /  0mm
06:58 36.1 °F /  2.3 °C 25.1 °F /  -3.8 °C 30.41in /  1029.7hPa NNE 4.0mph /  6.4km/h 5.0mph /  8km/h 64% 0.00in /  0mm
07:03 36.1 °F /  2.3 °C 25.1 °F /  -3.8 °C 30.40in /  1029.3hPa NE 3.0mph /  4.8km/h 6.0mph /  9.7km/h 64% 0.00in /  0mm
07:08 36.0 °F /  2.2 °C 25.4 °F /  -3.7 °C 30.40in /  1029.3hPa NE 3.0mph /  4.8km/h 5.0mph /  8km/h 65% 0.00in /  0mm
07:13 35.9 °F /  2.2 °C 25.3 °F /  -3.7 °C 30.40in /  1029.3hPa NNE 5.0mph /  8km/h 8.0mph /  12.9km/h 65% 0.00in /  0mm
07:18 36.1 °F /  2.3 °C 25.5 °F /  -3.6 °C 30.40in /  1029.3hPa NE 5.0mph /  8km/h 8.0mph /  12.9km/h 65% 0.00in /  0mm
07:23 36.3 °F /  2.4 °C 25.7 °F /  -3.5 °C 30.40in /  1029.3hPa NE 7.0mph /  11.3km/h 8.0mph /  12.9km/h 65% 0.00in /  0mm
07:28 36.7 °F /  2.6 °C 25.7 °F /  -3.5 °C 30.41in /  1029.7hPa NE 3.0mph /  4.8km/h 7.0mph /  11.3km/h 64% 0.00in /  0mm
07:33 37.0 °F /  2.8 °C 26.0 °F /  -3.3 °C 30.41in /  1029.7hPa NE 3.0mph /  4.8km/h 8.0mph /  12.9km/h 64% 0.00in /  0mm
07:39 37.3 °F /  2.9 °C 26.3 °F /  -3.2 °C 30.41in /  1029.7hPa NE 6.0mph /  9.7km/h 6.0mph /  9.7km/h 64% 0.00in /  0mm
07:44 37.5 °F /  3.1 °C 26.1 °F /  -3.3 °C 30.41in /  1029.7hPa NNE 4.0mph /  6.4km/h 6.0mph /  9.7km/h 63% 0.00in /  0mm
07:49 37.7 °F /  3.2 °C 26.3 °F /  -3.2 °C 30.41in /  1029.7hPa NNE 6.0mph /  9.7km/h 6.0mph /  9.7km/h 63% 0.00in /  0mm
07:54 38.0 °F /  3.3 °C 26.1 °F /  -3.3 °C 30.41in /  1029.7hPa NE 7.0mph /  11.3km/h 7.0mph /  11.3km/h 62% 0.00in /  0mm
07:59 38.4 °F /  3.6 °C 26.5 °F /  -3.1 °C 30.42in /  1030hPa North 4.0mph /  6.4km/h 8.0mph /  12.9km/h 62% 0.00in /  0mm
08:04 38.7 °F /  3.7 °C 26.4 °F /  -3.1 °C 30.42in /  1030hPa NE 10.0mph /  16.1km/h 10.0mph /  16.1km/h 61% 0.00in /  0mm
08:09 38.9 °F /  3.8 °C 26.6 °F /  -3 °C 30.42in /  1030hPa NE 4.0mph /  6.4km/h 6.0mph /  9.7km/h 61% 0.00in /  0mm
08:14 39.3 °F /  4.1 °C 27.0 °F /  -2.8 °C 30.43in /  1030.4hPa NNE 4.0mph /  6.4km/h 6.0mph /  9.7km/h 61% 0.00in /  0mm
08:19 39.7 °F /  4.3 °C 27.0 °F /  -2.8 °C 30.43in /  1030.4hPa ENE 2.0mph /  3.2km/h 5.0mph /  8km/h 60% 0.00in /  0mm
08:24 40.1 °F /  4.5 °C 27.4 °F /  -2.6 °C 30.43in /  1030.4hPa NE 2.0mph /  3.2km/h 6.0mph /  9.7km/h 60% 0.00in /  0mm
08:29 40.6 °F /  4.8 °C 27.8 °F /  -2.3 °C 30.43in /  1030.4hPa NE 3.0mph /  4.8km/h 5.0mph /  8km/h 60% 0.00in /  0mm
08:34 40.7 °F /  4.8 °C 27.5 °F /  -2.5 °C 30.43in /  1030.4hPa NE 3.0mph /  4.8km/h 6.0mph /  9.7km/h 59% 0.00in /  0mm
08:39 41.1 °F /  5.1 °C 27.5 °F /  -2.5 °C 30.43in /  1030.4hPa NE 5.0mph /  8km/h 9.0mph /  14.5km/h 58% 0.00in /  0mm
08:44 41.5 °F /  5.3 °C 28.3 °F /  -2.1 °C 30.43in /  1030.4hPa NNE 5.0mph /  8km/h 7.0mph /  11.3km/h 59% 0.00in /  0mm
08:49 41.9 °F /  5.5 °C 27.4 °F /  -2.6 °C 30.43in /  1030.4hPa NE 5.0mph /  8km/h 7.0mph /  11.3km/h 56% 0.00in /  0mm
08:54 42.3 °F /  5.7 °C 27.3 °F /  -2.6 °C 30.43in /  1030.4hPa NNE 5.0mph /  8km/h 9.0mph /  14.5km/h 55% 0.00in /  0mm
08:59 42.8 °F /  6 °C 27.3 °F /  -2.6 °C 30.43in /  1030.4hPa NE 6.0mph /  9.7km/h 9.0mph /  14.5km/h 54% 0.00in /  0mm
09:04 43.1 °F /  6.2 °C 27.1 °F /  -2.7 °C 30.43in /  1030.4hPa NNE 9.0mph /  14.5km/h 9.0mph /  14.5km/h 53% 0.00in /  0mm
09:09 43.4 °F /  6.3 °C 27.9 °F /  -2.3 °C 30.43in /  1030.4hPa NE 7.0mph /  11.3km/h 9.0mph /  14.5km/h 54% 0.00in /  0mm
09:14 44.1 °F /  6.7 °C 28.5 °F /  -1.9 °C 30.43in /  1030.4hPa NE 5.0mph /  8km/h 9.0mph /  14.5km/h 54% 0.00in /  0mm
09:19 44.8 °F /  7.1 °C 28.7 °F /  -1.8 °C 30.43in /  1030.4hPa East 6.0mph /  9.7km/h 8.0mph /  12.9km/h 53% 0.00in /  0mm
09:24 45.1 °F /  7.3 °C 27.6 °F /  -2.4 °C 30.43in /  1030.4hPa ENE 4.0mph /  6.4km/h 9.0mph /  14.5km/h 50% 0.00in /  0mm
09:29 45.5 °F /  7.5 °C 28.0 °F /  -2.2 °C 30.43in /  1030.4hPa NE 6.0mph /  9.7km/h 8.0mph /  12.9km/h 50% 0.00in /  0mm
09:34 45.9 °F /  7.7 °C 27.8 °F /  -2.3 °C 30.43in /  1030.4hPa NE 3.0mph /  4.8km/h 6.0mph /  9.7km/h 49% 0.00in /  0mm
09:39 46.3 °F /  7.9 °C 27.7 °F /  -2.4 °C 30.43in /  1030.4hPa NE 8.0mph /  12.9km/h 8.0mph /  12.9km/h 48% 0.00in /  0mm
09:44 46.8 °F /  8.2 °C 28.7 °F /  -1.8 °C 30.43in /  1030.4hPa NE 4.0mph /  6.4km/h 7.0mph /  11.3km/h 49% 0.00in /  0mm
09:49 47.3 °F /  8.5 °C 29.1 °F /  -1.6 °C 30.43in /  1030.4hPa NE 7.0mph /  11.3km/h 9.0mph /  14.5km/h 49% 0.00in /  0mm
09:54 47.5 °F /  8.6 °C 27.8 °F /  -2.3 °C 30.43in /  1030.4hPa NE 7.0mph /  11.3km/h 11.0mph /  17.7km/h 46% 0.00in /  0mm
09:59 47.8 °F /  8.8 °C 27.5 °F /  -2.5 °C 30.43in /  1030.4hPa NE 4.0mph /  6.4km/h 9.0mph /  14.5km/h 45% 0.00in /  0mm
10:04 48.2 °F /  9 °C 27.3 °F /  -2.6 °C 30.43in /  1030.4hPa NNE 6.0mph /  9.7km/h 10.0mph /  16.1km/h 44% 0.00in /  0mm
10:09 48.5 °F /  9.2 °C 28.7 °F /  -1.8 °C 30.43in /  1030.4hPa NNW 6.0mph /  9.7km/h 8.0mph /  12.9km/h 46% 0.00in /  0mm
10:14 48.7 °F /  9.3 °C 27.2 °F /  -2.7 °C 30.43in /  1030.4hPa NE 8.0mph /  12.9km/h 11.0mph /  17.7km/h 43% 0.00in /  0mm
10:19 49.2 °F /  9.6 °C 29.3 °F /  -1.5 °C 30.43in /  1030.4hPa NE 5.0mph /  8km/h 9.0mph /  14.5km/h 46% 0.00in /  0mm
10:25 49.6 °F /  9.8 °C 28.6 °F /  -1.9 °C 30.43in /  1030.4hPa NE 4.0mph /  6.4km/h 9.0mph /  14.5km/h 44% 0.00in /  0mm
10:30 50.0 °F /  10 °C 30.6 °F /  -0.8 °C 30.43in /  1030.4hPa NE 6.0mph /  9.7km/h 9.0mph /  14.5km/h 47% 0.00in /  0mm
10:35 50.4 °F /  10.2 °C 29.3 °F /  -1.5 °C 30.43in /  1030.4hPa NNE 5.0mph /  8km/h 7.0mph /  11.3km/h 44% 0.00in /  0mm
10:40 50.7 °F /  10.4 °C 29.0 °F /  -1.7 °C 30.43in /  1030.4hPa NE 5.0mph /  8km/h 9.0mph /  14.5km/h 43% 0.00in /  0mm
10:45 50.8 °F /  10.4 °C 28.5 °F /  -1.9 °C 30.43in /  1030.4hPa North 5.0mph /  8km/h 10.0mph /  16.1km/h 42% 0.00in /  0mm
10:50 51.4 °F /  10.8 °C 32.4 °F /  0.2 °C 30.43in /  1030.4hPa NNE 1.0mph /  1.6km/h 6.0mph /  9.7km/h 48% 0.00in /  0mm
10:55 52.1 °F /  11.2 °C 29.1 °F /  -1.6 °C 30.44in /  1030.7hPa NE 4.0mph /  6.4km/h 7.0mph /  11.3km/h 41% 0.00in /  0mm
11:00 52.4 °F /  11.3 °C 27.6 °F /  -2.4 °C 30.44in /  1030.7hPa NE 4.0mph /  6.4km/h 6.0mph /  9.7km/h 38% 0.00in /  0mm
11:05 52.6 °F /  11.4 °C 30.2 °F /  -1 °C 30.44in /  1030.7hPa ENE 6.0mph /  9.7km/h 7.0mph /  11.3km/h 42% 0.00in /  0mm
11:10 52.5 °F /  11.4 °C 27.6 °F /  -2.4 °C 30.44in /  1030.7hPa East 4.0mph /  6.4km/h 5.0mph /  8km/h 38% 0.00in /  0mm
11:15 53.0 °F /  11.7 °C 31.7 °F /  -0.2 °C 30.44in /  1030.7hPa NNE 4.0mph /  6.4km/h 11.0mph /  17.7km/h 44% 0.00in /  0mm
11:20 52.9 °F /  11.6 °C 29.9 °F /  -1.2 °C 30.43in /  1030.4hPa NNE 6.0mph /  9.7km/h 8.0mph /  12.9km/h 41% 0.00in /  0mm
11:25 53.3 °F /  11.8 °C 30.8 °F /  -0.7 °C 30.43in /  1030.4hPa SE 1.0mph /  1.6km/h 3.0mph /  4.8km/h 42% 0.00in /  0mm
11:30 54.0 °F /  12.2 °C 28.3 °F /  -2.1 °C 30.43in /  1030.4hPa East 1.0mph /  1.6km/h 6.0mph /  9.7km/h 37% 0.00in /  0mm
11:36 54.6 °F /  12.6 °C 28.2 °F /  -2.1 °C 30.43in /  1030.4hPa ESE 4.0mph /  6.4km/h 6.0mph /  9.7km/h 36% 0.00in /  0mm
11:37 54.7 °F /  12.6 °C 30.2 °F /  -1 °C 30.42in /  1030hPa SE 4.0mph /  6.4km/h 8.0mph /  12.9km/h 39% 0.00in /  0mm
11:42 54.8 °F /  12.7 °C 27.7 °F /  -2.4 °C 30.42in /  1030hPa ENE 5.0mph /  8km/h 10.0mph /  16.1km/h 35% 0.00in /  0mm
11:47 54.9 °F /  12.7 °C 29.8 °F /  -1.2 °C 30.42in /  1030hPa NE 6.0mph /  9.7km/h 8.0mph /  12.9km/h 38% 0.00in /  0mm
11:52 55.2 °F /  12.9 °C 29.4 °F /  -1.4 °C 30.42in /  1030hPa NE 8.0mph /  12.9km/h 8.0mph /  12.9km/h 37% 0.00in /  0mm
11:57 55.5 °F /  13.1 °C 29.7 °F /  -1.3 °C 30.41in /  1029.7hPa NNE 4.0mph /  6.4km/h 7.0mph /  11.3km/h 37% 0.00in /  0mm
12:02 55.9 °F /  13.3 °C 28.7 °F /  -1.8 °C 30.41in /  1029.7hPa East 1.0mph /  1.6km/h 5.0mph /  8km/h 35% 0.00in /  0mm
12:07 56.3 °F /  13.5 °C 27.6 °F /  -2.4 °C 30.41in /  1029.7hPa East 3.0mph /  4.8km/h 8.0mph /  12.9km/h 33% 0.00in /  0mm
12:12 56.5 °F /  13.6 °C 28.5 °F /  -1.9 °C 30.41in /  1029.7hPa ENE 5.0mph /  8km/h 9.0mph /  14.5km/h 34% 0.00in /  0mm
12:17 56.9 °F /  13.8 °C 29.5 °F /  -1.4 °C 30.41in /  1029.7hPa East 8.0mph /  12.9km/h 8.0mph /  12.9km/h 35% 0.00in /  0mm
12:22 57.5 °F /  14.2 °C 30.8 °F /  -0.7 °C 30.41in /  1029.7hPa East 6.0mph /  9.7km/h 9.0mph /  14.5km/h 36% 0.00in /  0mm
12:27 57.8 °F /  14.3 °C 31.7 °F /  -0.2 °C 30.41in /  1029.7hPa SSE 5.0mph /  8km/h 9.0mph /  14.5km/h 37% 0.00in /  0mm
12:32 58.0 °F /  14.4 °C 29.8 °F /  -1.2 °C 30.40in /  1029.3hPa East 5.0mph /  8km/h 8.0mph /  12.9km/h 34% 0.00in /  0mm
12:37 58.0 °F /  14.4 °C 28.3 °F /  -2.1 °C 30.40in /  1029.3hPa ESE 2.0mph /  3.2km/h 8.0mph /  12.9km/h 32% 0.00in /  0mm
12:42 58.4 °F /  14.7 °C 30.2 °F /  -1 °C 30.39in /  1029hPa ENE 3.0mph /  4.8km/h 6.0mph /  9.7km/h 34% 0.00in /  0mm
12:47 58.6 °F /  14.8 °C 31.0 °F /  -0.6 °C 30.39in /  1029hPa SE 4.0mph /  6.4km/h 5.0mph /  8km/h 35% 0.00in /  0mm
12:52 59.1 °F /  15.1 °C 31.5 °F /  -0.3 °C 30.39in /  1029hPa SSE 3.0mph /  4.8km/h 6.0mph /  9.7km/h 35% 0.00in /  0mm
12:57 59.5 °F /  15.3 °C 31.1 °F /  -0.5 °C 30.39in /  1029hPa ENE 3.0mph /  4.8km/h 4.0mph /  6.4km/h 34% 0.00in /  0mm
13:02 59.5 °F /  15.3 °C 28.9 °F /  -1.7 °C 30.39in /  1029hPa SE 5.0mph /  8km/h 10.0mph /  16.1km/h 31% 0.00in /  0mm
13:07 59.4 °F /  15.2 °C 30.3 °F /  -0.9 °C 30.38in /  1028.7hPa ESE 3.0mph /  4.8km/h 6.0mph /  9.7km/h 33% 0.00in /  0mm
13:12 59.9 °F /  15.5 °C 31.5 °F /  -0.3 °C 30.38in /  1028.7hPa East 1.0mph /  1.6km/h 6.0mph /  9.7km/h 34% 0.00in /  0mm
13:17 60.2 °F /  15.7 °C 31.8 °F /  -0.1 °C 30.37in /  1028.3hPa NE 4.0mph /  6.4km/h 6.0mph /  9.7km/h 34% 0.00in /  0mm
13:23 60.1 °F /  15.6 °C 31.7 °F /  -0.2 °C 30.37in /  1028.3hPa ESE 3.0mph /  4.8km/h 8.0mph /  12.9km/h 34% 0.00in /  0mm
13:28 60.3 °F /  15.7 °C 32.6 °F /  0.3 °C 30.37in /  1028.3hPa SE 2.0mph /  3.2km/h 6.0mph /  9.7km/h 35% 0.00in /  0mm
13:33 61.0 °F /  16.1 °C 31.0 °F /  -0.6 °C 30.37in /  1028.3hPa SE 1.0mph /  1.6km/h 6.0mph /  9.7km/h 32% 0.00in /  0mm
13:38 61.6 °F /  16.4 °C 29.1 °F /  -1.6 °C 30.36in /  1028hPa SSE 1.0mph /  1.6km/h 4.0mph /  6.4km/h 29% 0.00in /  0mm
13:43 61.4 °F /  16.3 °C 28.9 °F /  -1.7 °C 30.36in /  1028hPa ESE 3.0mph /  4.8km/h 6.0mph /  9.7km/h 29% 0.00in /  0mm
13:48 61.3 °F /  16.3 °C 29.6 °F /  -1.3 °C 30.36in /  1028hPa ESE 7.0mph /  11.3km/h 10.0mph /  16.1km/h 30% 0.00in /  0mm
13:53 61.4 °F /  16.3 °C 29.7 °F /  -1.3 °C 30.36in /  1028hPa SE 2.0mph /  3.2km/h 5.0mph /  8km/h 30% 0.00in /  0mm
13:58 61.9 °F /  16.6 °C 30.1 °F /  -1.1 °C 30.36in /  1028hPa SE 3.0mph /  4.8km/h 3.0mph /  4.8km/h 30% 0.00in /  0mm
14:03 62.0 °F /  16.7 °C 30.2 °F /  -1 °C 30.36in /  1028hPa SE 6.0mph /  9.7km/h 8.0mph /  12.9km/h 30% 0.00in /  0mm
14:08 61.8 °F /  16.6 °C 30.1 °F /  -1.1 °C 30.35in /  1027.7hPa SSE 4.0mph /  6.4km/h 7.0mph /  11.3km/h 30% 0.00in /  0mm
14:13 62.3 °F /  16.8 °C 31.3 °F /  -0.4 °C 30.35in /  1027.7hPa SW 1.0mph /  1.6km/h 6.0mph /  9.7km/h 31% 0.00in /  0mm
14:18 62.5 °F /  16.9 °C 31.5 °F /  -0.3 °C 30.35in /  1027.7hPa SE 3.0mph /  4.8km/h 7.0mph /  11.3km/h 31% 0.00in /  0mm
14:23 62.8 °F /  17.1 °C 34.8 °F /  1.6 °C 30.35in /  1027.7hPa SSE 4.0mph /  6.4km/h 5.0mph /  8km/h 35% 0.00in /  0mm
14:28 63.0 °F /  17.2 °C 35.7 °F /  2.1 °C 30.35in /  1027.7hPa SSE 4.0mph /  6.4km/h 4.0mph /  6.4km/h 36% 0.00in /  0mm
14:33 63.2 °F /  17.3 °C 32.1 °F /  0.1 °C 30.35in /  1027.7hPa SSW 2.0mph /  3.2km/h 6.0mph /  9.7km/h 31% 0.00in /  0mm
14:39 63.2 °F /  17.3 °C 33.6 °F /  0.9 °C 30.34in /  1027.3hPa SE 7.0mph /  11.3km/h 7.0mph /  11.3km/h 33% 0.00in /  0mm
14:44 62.7 °F /  17.1 °C 31.6 °F /  -0.2 °C 30.34in /  1027.3hPa North 1.0mph /  1.6km/h 7.0mph /  11.3km/h 31% 0.00in /  0mm
14:49 62.5 °F /  16.9 °C 33.8 °F /  1 °C 30.34in /  1027.3hPa WSW 3.0mph /  4.8km/h 5.0mph /  8km/h 34% 0.00in /  0mm
14:54 63.3 °F /  17.4 °C 33.7 °F /  0.9 °C 30.34in /  1027.3hPa East 4.0mph /  6.4km/h 6.0mph /  9.7km/h 33% 0.00in /  0mm
15:00 62.7 °F /  17.1 °C 32.4 °F /  0.2 °C 30.33in /  1027hPa Calm   8.0mph /  12.9km/h 32% 0.00in /  0mm
15:05 62.9 °F /  17.2 °C 33.4 °F /  0.8 °C 30.33in /  1027hPa South 2.0mph /  3.2km/h 6.0mph /  9.7km/h 33% 0.00in /  0mm
15:10 63.2 °F /  17.3 °C 33.6 °F /  0.9 °C 30.33in /  1027hPa South 2.0mph /  3.2km/h 5.0mph /  8km/h 33% 0.00in /  0mm
15:15 63.9 °F /  17.7 °C 35.0 °F /  1.7 °C 30.33in /  1027hPa WSW 4.0mph /  6.4km/h 4.0mph /  6.4km/h 34% 0.00in /  0mm
15:20 64.5 °F /  18.1 °C 34.0 °F /  1.1 °C 30.33in /  1027hPa SSE 6.0mph /  9.7km/h 6.0mph /  9.7km/h 32% 0.00in /  0mm
15:25 64.5 °F /  18.1 °C 36.3 °F /  2.4 °C 30.33in /  1027hPa ESE 1.0mph /  1.6km/h 4.0mph /  6.4km/h 35% 0.00in /  0mm
15:30 64.5 °F /  18.1 °C 34.8 °F /  1.6 °C 30.33in /  1027hPa SSE 4.0mph /  6.4km/h 5.0mph /  8km/h 33% 0.00in /  0mm
15:35 64.4 °F /  18 °C 36.2 °F /  2.3 °C 30.33in /  1027hPa SSE 6.0mph /  9.7km/h 7.0mph /  11.3km/h 35% 0.00in /  0mm
15:40 64.4 °F /  18 °C 34.7 °F /  1.5 °C 30.32in /  1026.6hPa South 3.0mph /  4.8km/h 6.0mph /  9.7km/h 33% 0.00in /  0mm
15:45 64.5 °F /  18.1 °C 34.0 °F /  1.1 °C 30.32in /  1026.6hPa SSE 1.0mph /  1.6km/h 3.0mph /  4.8km/h 32% 0.00in /  0mm
15:50 64.9 °F /  18.3 °C 35.1 °F /  1.7 °C 30.32in /  1026.6hPa SE 2.0mph /  3.2km/h 6.0mph /  9.7km/h 33% 0.00in /  0mm
15:55 64.9 °F /  18.3 °C 35.1 °F /  1.7 °C 30.32in /  1026.6hPa SSE 3.0mph /  4.8km/h 6.0mph /  9.7km/h 33% 0.00in /  0mm
16:00 64.6 °F /  18.1 °C 34.9 °F /  1.6 °C 30.31in /  1026.3hPa ESE 3.0mph /  4.8km/h 7.0mph /  11.3km/h 33% 0.00in /  0mm
16:05 64.5 °F /  18.1 °C 34.8 °F /  1.6 °C 30.31in /  1026.3hPa East 2.0mph /  3.2km/h 4.0mph /  6.4km/h 33% 0.00in /  0mm
16:07 64.6 °F /  18.1 °C 36.3 °F /  2.4 °C 30.31in /  1026.3hPa East 2.0mph /  3.2km/h 4.0mph /  6.4km/h 35% 0.00in /  0mm
16:12 64.5 °F /  18.1 °C 34.0 °F /  1.1 °C 30.31in /  1026.3hPa SE 4.0mph /  6.4km/h 5.0mph /  8km/h 32% 0.00in /  0mm
16:17 64.3 °F /  17.9 °C 33.8 °F /  1 °C 30.31in /  1026.3hPa East 4.0mph /  6.4km/h 8.0mph /  12.9km/h 32% 0.00in /  0mm
16:22 64.1 °F /  17.8 °C 33.7 °F /  0.9 °C 30.31in /  1026.3hPa ENE 4.0mph /  6.4km/h 6.0mph /  9.7km/h 32% 0.00in /  0mm
16:27 64.1 °F /  17.8 °C 35.2 °F /  1.8 °C 30.30in /  1026hPa ENE 3.0mph /  4.8km/h 7.0mph /  11.3km/h 34% 0.00in /  0mm
16:32 64.1 °F /  17.8 °C 33.7 °F /  0.9 °C 30.30in /  1026hPa ENE 2.0mph /  3.2km/h 7.0mph /  11.3km/h 32% 0.00in /  0mm
16:37 64.2 °F /  17.9 °C 33.8 °F /  1 °C 30.30in /  1026hPa East 5.0mph /  8km/h 6.0mph /  9.7km/h 32% 0.00in /  0mm
16:42 63.9 °F /  17.7 °C 33.5 °F /  0.8 °C 30.30in /  1026hPa East 5.0mph /  8km/h 5.0mph /  8km/h 32% 0.00in /  0mm
16:47 63.9 °F /  17.7 °C 33.5 °F /  0.8 °C 30.30in /  1026hPa ESE 4.0mph /  6.4km/h 6.0mph /  9.7km/h 32% 0.00in /  0mm
16:52 64.0 °F /  17.8 °C 34.3 °F /  1.3 °C 30.29in /  1025.6hPa SE 4.0mph /  6.4km/h 6.0mph /  9.7km/h 33% 0.00in /  0mm
16:57 64.2 °F /  17.9 °C 36.7 °F /  2.6 °C 30.29in /  1025.6hPa East 3.0mph /  4.8km/h 4.0mph /  6.4km/h 36% 0.00in /  0mm
17:02 64.3 °F /  17.9 °C 35.4 °F /  1.9 °C 30.28in /  1025.3hPa ESE 4.0mph /  6.4km/h 5.0mph /  8km/h 34% 0.00in /  0mm
17:07 64.3 °F /  17.9 °C 36.8 °F /  2.7 °C 30.28in /  1025.3hPa ENE 4.0mph /  6.4km/h 5.0mph /  8km/h 36% 0.00in /  0mm
17:12 64.1 °F /  17.8 °C 36.6 °F /  2.6 °C 30.28in /  1025.3hPa East 3.0mph /  4.8km/h 5.0mph /  8km/h 36% 0.00in /  0mm
17:17 64.1 °F /  17.8 °C 35.9 °F /  2.2 °C 30.28in /  1025.3hPa ESE 4.0mph /  6.4km/h 4.0mph /  6.4km/h 35% 0.00in /  0mm
17:22 64.2 °F /  17.9 °C 34.5 °F /  1.4 °C 30.28in /  1025.3hPa East 3.0mph /  4.8km/h 4.0mph /  6.4km/h 33% 0.00in /  0mm
17:28 64.2 °F /  17.9 °C 36.0 °F /  2.2 °C 30.28in /  1025.3hPa East 3.0mph /  4.8km/h 3.0mph /  4.8km/h 35% 0.00in /  0mm
17:33 64.2 °F /  17.9 °C 34.5 °F /  1.4 °C 30.28in /  1025.3hPa ENE 2.0mph /  3.2km/h 5.0mph /  8km/h 33% 0.00in /  0mm
17:37 64.2 °F /  17.9 °C 38.8 °F /  3.8 °C 30.29in /  1025.6hPa ESE 3.0mph /  4.8km/h 3.0mph /  4.8km/h 39% 0.00in /  0mm
17:43 63.9 °F /  17.7 °C 37.1 °F /  2.8 °C 30.29in /  1025.6hPa ESE 4.0mph /  6.4km/h 5.0mph /  8km/h 37% 0.00in /  0mm
17:48 63.6 °F /  17.6 °C 38.2 °F /  3.4 °C 30.30in /  1026hPa ESE 4.0mph /  6.4km/h 5.0mph /  8km/h 39% 0.00in /  0mm
17:53 63.4 °F /  17.4 °C 35.3 °F /  1.8 °C 30.29in /  1025.6hPa East 2.0mph /  3.2km/h 4.0mph /  6.4km/h 35% 0.00in /  0mm
17:58 63.4 °F /  17.4 °C 34.6 °F /  1.4 °C 30.29in /  1025.6hPa East 3.0mph /  4.8km/h 3.0mph /  4.8km/h 34% 0.00in /  0mm
18:03 63.2 °F /  17.3 °C 37.2 °F /  2.9 °C 30.29in /  1025.6hPa SE 4.0mph /  6.4km/h 4.0mph /  6.4km/h 38% 0.00in /  0mm
18:08 62.5 °F /  16.9 °C 35.9 °F /  2.2 °C 30.29in /  1025.6hPa ESE 4.0mph /  6.4km/h 4.0mph /  6.4km/h 37% 0.00in /  0mm
18:13 62.2 °F /  16.8 °C 36.3 °F /  2.4 °C 30.29in /  1025.6hPa ESE 3.0mph /  4.8km/h 4.0mph /  6.4km/h 38% 0.00in /  0mm
18:18 61.5 °F /  16.4 °C 36.3 °F /  2.4 °C 30.29in /  1025.6hPa East 2.0mph /  3.2km/h 4.0mph /  6.4km/h 39% 0.00in /  0mm
18:23 60.9 °F /  16.1 °C 36.4 °F /  2.4 °C 30.29in /  1025.6hPa ESE 4.0mph /  6.4km/h 5.0mph /  8km/h 40% 0.00in /  0mm
18:28 60.4 °F /  15.8 °C 35.3 °F /  1.8 °C 30.29in /  1025.6hPa East 4.0mph /  6.4km/h 4.0mph /  6.4km/h 39% 0.00in /  0mm
18:33 60.1 °F /  15.6 °C 36.3 °F /  2.4 °C 30.29in /  1025.6hPa East 1.0mph /  1.6km/h 2.0mph /  3.2km/h 41% 0.00in /  0mm
18:38 59.9 °F /  15.5 °C 35.5 °F /  1.9 °C 30.29in /  1025.6hPa East 1.0mph /  1.6km/h 2.0mph /  3.2km/h 40% 0.00in /  0mm
18:43 59.7 °F /  15.4 °C 35.4 °F /  1.9 °C 30.29in /  1025.6hPa ESE 2.0mph /  3.2km/h 2.0mph /  3.2km/h 40% 0.00in /  0mm
18:48 59.5 °F /  15.3 °C 35.2 °F /  1.8 °C 30.29in /  1025.6hPa ESE 1.0mph /  1.6km/h 2.0mph /  3.2km/h 40% 0.00in /  0mm
18:53 59.3 °F /  15.2 °C 34.4 °F /  1.3 °C 30.29in /  1025.6hPa ESE 1.0mph /  1.6km/h 1.0mph /  1.6km/h 39% 0.00in /  0mm
18:58 59.1 °F /  15.1 °C 34.2 °F /  1.2 °C 30.30in /  1026hPa Calm   1.0mph /  1.6km/h 39% 0.00in /  0mm
19:03 58.9 °F /  14.9 °C 34.0 °F /  1.1 °C 30.31in /  1026.3hPa Calm     39% 0.00in /  0mm
19:08 58.2 °F /  14.6 °C 34.0 °F /  1.1 °C 30.31in /  1026.3hPa ESE 1.0mph /  1.6km/h 1.0mph /  1.6km/h 40% 0.00in /  0mm
19:13 58.3 °F /  14.6 °C 34.1 °F /  1.2 °C 30.30in /  1026hPa ESE 1.0mph /  1.6km/h 1.0mph /  1.6km/h 40% 0.00in /  0mm
19:18 58.0 °F /  14.4 °C 33.8 °F /  1 °C 30.30in /  1026hPa East 2.0mph /  3.2km/h 2.0mph /  3.2km/h 40% 0.00in /  0mm
19:23 57.8 °F /  14.3 °C 33.7 °F /  0.9 °C 30.30in /  1026hPa East 1.0mph /  1.6km/h 1.0mph /  1.6km/h 40% 0.00in /  0mm
19:28 58.3 °F /  14.6 °C 33.5 °F /  0.8 °C 30.30in /  1026hPa East 1.0mph /  1.6km/h 2.0mph /  3.2km/h 39% 0.00in /  0mm
19:33 58.4 °F /  14.7 °C 33.6 °F /  0.9 °C 30.30in /  1026hPa Calm   1.0mph /  1.6km/h 39% 0.00in /  0mm
19:38 58.3 °F /  14.6 °C 33.5 °F /  0.8 °C 30.30in /  1026hPa East 1.0mph /  1.6km/h 1.0mph /  1.6km/h 39% 0.00in /  0mm
19:43 58.2 °F /  14.6 °C 34.0 °F /  1.1 °C 30.30in /  1026hPa ENE 2.0mph /  3.2km/h 2.0mph /  3.2km/h 40% 0.00in /  0mm
19:48 58.2 °F /  14.6 °C 34.0 °F /  1.1 °C 30.30in /  1026hPa East 1.0mph /  1.6km/h 2.0mph /  3.2km/h 40% 0.00in /  0mm
19:53 57.9 °F /  14.4 °C 34.4 °F /  1.3 °C 30.30in /  1026hPa East 1.0mph /  1.6km/h 1.0mph /  1.6km/h 41% 0.00in /  0mm
19:58 57.8 °F /  14.3 °C 34.3 °F /  1.3 °C 30.31in /  1026.3hPa East 1.0mph /  1.6km/h 2.0mph /  3.2km/h 41% 0.00in /  0mm
20:03 57.6 °F /  14.2 °C 34.1 °F /  1.2 °C 30.31in /  1026.3hPa East 1.0mph /  1.6km/h 1.0mph /  1.6km/h 41% 0.00in /  0mm
20:08 57.4 °F /  14.1 °C 33.9 °F /  1.1 °C 30.31in /  1026.3hPa East 1.0mph /  1.6km/h 1.0mph /  1.6km/h 41% 0.00in /  0mm
20:13 57.3 °F /  14.1 °C 33.8 °F /  1 °C 30.30in /  1026hPa Calm   1.0mph /  1.6km/h 41% 0.00in /  0mm
20:18 57.2 °F /  14 °C 34.3 °F /  1.3 °C 30.31in /  1026.3hPa Calm   1.0mph /  1.6km/h 42% 0.00in /  0mm
20:23 56.8 °F /  13.8 °C 34.0 °F /  1.1 °C 30.31in /  1026.3hPa East 1.0mph /  1.6km/h 1.0mph /  1.6km/h 42% 0.00in /  0mm
20:28 56.6 °F /  13.7 °C 33.8 °F /  1 °C 30.31in /  1026.3hPa Calm   1.0mph /  1.6km/h 42% 0.00in /  0mm
20:33 56.7 °F /  13.7 °C 33.9 °F /  1.1 °C 30.31in /  1026.3hPa Calm   1.0mph /  1.6km/h 42% 0.00in /  0mm
20:38 56.6 °F /  13.7 °C 33.8 °F /  1 °C 30.31in /  1026.3hPa Calm     42% 0.00in /  0mm
20:43 56.1 °F /  13.4 °C 33.9 °F /  1.1 °C 30.31in /  1026.3hPa Calm     43% 0.00in /  0mm
20:48 55.5 °F /  13.1 °C 34.0 °F /  1.1 °C 30.31in /  1026.3hPa Calm     44% 0.00in /  0mm
20:53 55.3 °F /  12.9 °C 33.8 °F /  1 °C 30.32in /  1026.6hPa East 1.0mph /  1.6km/h 1.0mph /  1.6km/h 44% 0.00in /  0mm
20:58 55.7 °F /  13.2 °C 34.1 °F /  1.2 °C 30.31in /  1026.3hPa East 1.0mph /  1.6km/h 2.0mph /  3.2km/h 44% 0.00in /  0mm
21:03 55.9 °F /  13.3 °C 34.3 °F /  1.3 °C 30.32in /  1026.6hPa East 1.0mph /  1.6km/h 2.0mph /  3.2km/h 44% 0.00in /  0mm
21:09 55.9 °F /  13.3 °C 34.3 °F /  1.3 °C 30.31in /  1026.3hPa ENE 2.0mph /  3.2km/h 2.0mph /  3.2km/h 44% 0.00in /  0mm
21:14 55.9 °F /  13.3 °C 34.3 °F /  1.3 °C 30.32in /  1026.6hPa East 3.0mph /  4.8km/h 3.0mph /  4.8km/h 44% 0.00in /  0mm
21:19 56.0 °F /  13.3 °C 34.4 °F /  1.3 °C 30.31in /  1026.3hPa ENE 2.0mph /  3.2km/h 3.0mph /  4.8km/h 44% 0.00in /  0mm
21:24 55.9 °F /  13.3 °C 34.3 °F /  1.3 °C 30.32in /  1026.6hPa East 2.0mph /  3.2km/h 4.0mph /  6.4km/h 44% 0.00in /  0mm
21:29 55.5 °F /  13.1 °C 34.5 °F /  1.4 °C 30.31in /  1026.3hPa East 2.0mph /  3.2km/h 4.0mph /  6.4km/h 45% 0.00in /  0mm
21:34 55.2 °F /  12.9 °C 34.8 °F /  1.6 °C 30.31in /  1026.3hPa East 2.0mph /  3.2km/h 4.0mph /  6.4km/h 46% 0.00in /  0mm
21:39 54.9 °F /  12.7 °C 35.1 °F /  1.7 °C 30.32in /  1026.6hPa ESE 1.0mph /  1.6km/h 2.0mph /  3.2km/h 47% 0.00in /  0mm
21:44 54.2 °F /  12.3 °C 35.0 °F /  1.7 °C 30.32in /  1026.6hPa East 3.0mph /  4.8km/h 3.0mph /  4.8km/h 48% 0.00in /  0mm
21:51 53.5 °F /  11.9 °C 34.8 °F /  1.6 °C 30.32in /  1026.6hPa ESE 1.0mph /  1.6km/h 1.0mph /  1.6km/h 49% 0.00in /  0mm
21:56 53.2 °F /  11.8 °C 35.1 °F /  1.7 °C 30.32in /  1026.6hPa ESE 1.0mph /  1.6km/h 2.0mph /  3.2km/h 50% 0.00in /  0mm
22:01 52.8 °F /  11.6 °C 35.2 °F /  1.8 °C 30.32in /  1026.6hPa ESE 2.0mph /  3.2km/h 3.0mph /  4.8km/h 51% 0.00in /  0mm
22:06 52.5 °F /  11.4 °C 35.4 °F /  1.9 °C 30.32in /  1026.6hPa ESE 2.0mph /  3.2km/h 3.0mph /  4.8km/h 52% 0.00in /  0mm
22:11 52.2 °F /  11.2 °C 35.6 °F /  2 °C 30.31in /  1026.3hPa ESE 3.0mph /  4.8km/h 3.0mph /  4.8km/h 53% 0.00in /  0mm
22:16 52.4 °F /  11.3 °C 35.8 °F /  2.1 °C 30.31in /  1026.3hPa ESE 3.0mph /  4.8km/h 5.0mph /  8km/h 53% 0.00in /  0mm
22:21 52.2 °F /  11.2 °C 35.6 °F /  2 °C 30.31in /  1026.3hPa East 3.0mph /  4.8km/h 4.0mph /  6.4km/h 53% 0.00in /  0mm
22:26 51.9 °F /  11.1 °C 35.8 °F /  2.1 °C 30.31in /  1026.3hPa East 1.0mph /  1.6km/h 2.0mph /  3.2km/h 54% 0.00in /  0mm
22:31 51.8 °F /  11 °C 35.7 °F /  2.1 °C 30.31in /  1026.3hPa ESE 1.0mph /  1.6km/h 2.0mph /  3.2km/h 54% 0.00in /  0mm
22:36 51.7 °F /  10.9 °C 35.6 °F /  2 °C 30.31in /  1026.3hPa East 2.0mph /  3.2km/h 3.0mph /  4.8km/h 54% 0.00in /  0mm
22:41 51.8 °F /  11 °C 35.7 °F /  2.1 °C 30.31in /  1026.3hPa ESE 3.0mph /  4.8km/h 4.0mph /  6.4km/h 54% 0.00in /  0mm
22:46 51.6 °F /  10.9 °C 35.5 °F /  1.9 °C 30.31in /  1026.3hPa East 1.0mph /  1.6km/h 2.0mph /  3.2km/h 54% 0.00in /  0mm
22:52 51.6 °F /  10.9 °C 35.5 °F /  1.9 °C 30.31in /  1026.3hPa ESE 1.0mph /  1.6km/h 2.0mph /  3.2km/h 54% 0.00in /  0mm
22:57 51.7 °F /  10.9 °C 35.6 °F /  2 °C 30.31in /  1026.3hPa East 1.0mph /  1.6km/h 2.0mph /  3.2km/h 54% 0.00in /  0mm
23:02 51.4 °F /  10.8 °C 35.8 °F /  2.1 °C 30.31in /  1026.3hPa East 1.0mph /  1.6km/h 2.0mph /  3.2km/h 55% 0.00in /  0mm
23:07 51.3 °F /  10.7 °C 35.7 °F /  2.1 °C 30.31in /  1026.3hPa East 2.0mph /  3.2km/h 2.0mph /  3.2km/h 55% 0.00in /  0mm
23:12 51.1 °F /  10.6 °C 36.0 °F /  2.2 °C 30.31in /  1026.3hPa ESE 2.0mph /  3.2km/h 3.0mph /  4.8km/h 56% 0.00in /  0mm
23:17 50.9 °F /  10.5 °C 35.8 °F /  2.1 °C 30.31in /  1026.3hPa ESE 3.0mph /  4.8km/h 3.0mph /  4.8km/h 56% 0.00in /  0mm
23:22 50.6 °F /  10.3 °C 35.9 °F /  2.2 °C 30.31in /  1026.3hPa ESE 3.0mph /  4.8km/h 3.0mph /  4.8km/h 57% 0.00in /  0mm
23:27 50.3 °F /  10.2 °C 36.1 °F /  2.3 °C 30.31in /  1026.3hPa ESE 3.0mph /  4.8km/h 3.0mph /  4.8km/h 58% 0.00in /  0mm
23:32 50.0 °F /  10 °C 36.2 °F /  2.3 °C 30.31in /  1026.3hPa ESE 2.0mph /  3.2km/h 3.0mph /  4.8km/h 59% 0.00in /  0mm
23:37 50.0 °F /  10 °C 36.2 °F /  2.3 °C 30.31in /  1026.3hPa East 2.0mph /  3.2km/h 3.0mph /  4.8km/h 59% 0.00in /  0mm
23:42 50.2 °F /  10.1 °C 36.0 °F /  2.2 °C 30.31in /  1026.3hPa East 2.0mph /  3.2km/h 3.0mph /  4.8km/h 58% 0.00in /  0mm
23:47 50.3 °F /  10.2 °C 36.1 °F /  2.3 °C 30.31in /  1026.3hPa ESE 1.0mph /  1.6km/h 2.0mph /  3.2km/h 58% 0.00in /  0mm
23:52 50.2 °F /  10.1 °C 36.0 °F /  2.2 °C 30.31in /  1026.3hPa ESE 2.0mph /  3.2km/h 3.0mph /  4.8km/h 58% 0.00in /  0mm
23:57 50.2 °F /  10.1 °C 36.0 °F /  2.2 °C 30.30in /  1026hPa ESE 3.0mph /  4.8km/h 3.0mph /  4.8km/h 58% 0.00in /  0mm
Compliments of Weather Underground